createdAt,value
2023-05-02T00:01:37.313Z,15.50
2023-05-02T00:04:40.556Z,15.50
2023-05-02T00:07:43.681Z,15.40
2023-05-02T00:10:46.766Z,15.40
2023-05-02T00:13:50.248Z,15.40
2023-05-02T00:16:54.710Z,15.40
2023-05-02T00:19:58.255Z,15.30
2023-05-02T00:23:01.537Z,15.30
2023-05-02T00:26:04.780Z,15.30
2023-05-02T00:29:08.140Z,15.30
2023-05-02T00:32:12.865Z,15.30
2023-05-02T00:35:15.945Z,15.20
2023-05-02T00:38:19.006Z,15.20
2023-05-02T00:41:22.104Z,15.10
2023-05-02T00:44:25.201Z,15.10
2023-05-02T00:47:29.797Z,15.00
2023-05-02T00:50:35.077Z,15.00
2023-05-02T00:53:38.755Z,15.10
2023-05-02T00:56:42.238Z,15.00
2023-05-02T00:59:45.429Z,15.00
2023-05-02T01:02:56.104Z,15.00
2023-05-02T01:06:09.851Z,15.00
2023-05-02T01:09:23.359Z,14.90
2023-05-02T01:12:29.982Z,14.90
2023-05-02T01:15:35.865Z,14.90
2023-05-02T01:18:43.399Z,14.90
2023-05-02T01:21:48.056Z,14.90
2023-05-02T01:25:03.542Z,14.80
2023-05-02T01:28:15.730Z,14.80
2023-05-02T01:31:20.614Z,14.80
2023-05-02T01:34:25.075Z,14.80
2023-05-02T01:37:31.942Z,14.80
2023-05-02T01:40:36.660Z,14.80
2023-05-02T01:43:41.247Z,14.80
2023-05-02T01:46:47.045Z,14.80
2023-05-02T01:49:50.476Z,14.70
2023-05-02T01:52:54.999Z,14.70
2023-05-02T01:56:00.141Z,14.70
2023-05-02T01:59:06.227Z,14.70
2023-05-02T02:02:14.096Z,14.70
2023-05-02T02:05:18.749Z,14.80
2023-05-02T02:08:21.966Z,14.70
2023-05-02T02:11:30.204Z,14.70
2023-05-02T02:14:37.722Z,14.60
2023-05-02T02:17:47.308Z,14.70
2023-05-02T02:20:52.165Z,14.60
2023-05-02T02:23:58.480Z,14.60
2023-05-02T02:27:01.581Z,14.60
2023-05-02T02:30:05.474Z,14.60
2023-05-02T02:33:10.073Z,14.60
2023-05-02T02:36:16.838Z,14.60
2023-05-02T02:39:29.903Z,14.70
2023-05-02T02:42:40.142Z,14.70
2023-05-02T02:45:50.603Z,14.70
2023-05-02T02:49:09.199Z,14.70
2023-05-02T02:52:18.578Z,14.70
2023-05-02T02:55:32.612Z,14.70
2023-05-02T02:58:44.557Z,14.70
2023-05-02T03:01:54.544Z,14.70
2023-05-02T03:04:59.876Z,14.80
2023-05-02T03:08:03.046Z,14.70
2023-05-02T03:11:06.161Z,14.70
2023-05-02T03:14:09.219Z,14.70
2023-05-02T03:17:12.252Z,14.70
2023-05-02T03:20:16.723Z,14.80
2023-05-02T03:23:19.819Z,14.80
2023-05-02T03:26:22.875Z,14.80
2023-05-02T03:29:26.332Z,14.80
2023-05-02T03:32:29.593Z,14.90
2023-05-02T03:35:34.150Z,14.90
2023-05-02T03:38:37.261Z,14.80
2023-05-02T03:41:40.349Z,14.90
2023-05-02T03:44:43.405Z,14.90
2023-05-02T03:47:46.548Z,14.90
2023-05-02T03:50:51.783Z,14.90
2023-05-02T03:53:54.940Z,14.90
2023-05-02T03:56:58.202Z,14.90
2023-05-02T04:00:01.635Z,14.90
2023-05-02T04:03:05.156Z,14.90
2023-05-02T04:06:09.871Z,14.90
2023-05-02T04:09:12.971Z,14.90
2023-05-02T04:12:17.264Z,14.90
2023-05-02T04:15:20.544Z,14.80
2023-05-02T04:18:23.949Z,14.80
2023-05-02T04:21:28.564Z,14.80
2023-05-02T04:24:31.627Z,14.70
2023-05-02T04:27:34.811Z,14.80
2023-05-02T04:30:37.993Z,14.70
2023-05-02T04:33:41.147Z,14.70
2023-05-02T04:36:46.873Z,14.80
2023-05-02T04:39:50.152Z,14.70
2023-05-02T04:42:53.252Z,14.70
2023-05-02T04:45:58.706Z,14.80
2023-05-02T04:49:02.234Z,14.70
2023-05-02T04:52:07.062Z,14.80
2023-05-02T04:55:10.560Z,14.80
2023-05-02T04:58:13.719Z,14.80
2023-05-02T05:01:17.042Z,14.70
2023-05-02T05:04:20.565Z,14.70
2023-05-02T05:07:25.713Z,14.70
2023-05-02T05:10:28.836Z,14.70
2023-05-02T05:13:31.960Z,14.70
2023-05-02T05:16:35.189Z,14.80
2023-05-02T05:19:38.602Z,14.80
2023-05-02T05:22:43.403Z,14.90
2023-05-02T05:25:46.537Z,15.00
2023-05-02T05:28:50.697Z,15.00
2023-05-02T05:31:53.832Z,15.00
2023-05-02T05:34:57.028Z,15.00
2023-05-02T05:38:01.732Z,15.00
2023-05-02T05:41:05.794Z,15.00
2023-05-02T05:44:08.857Z,15.00
2023-05-02T05:47:12.033Z,15.00
2023-05-02T05:50:15.143Z,15.00
2023-05-02T05:53:19.846Z,15.00
2023-05-02T05:56:23.793Z,15.00
2023-05-02T05:59:27.582Z,15.10
2023-05-02T06:02:30.788Z,15.20
2023-05-02T06:05:34.546Z,15.20
2023-05-02T06:08:39.317Z,15.20
2023-05-02T06:11:42.407Z,15.20
2023-05-02T06:14:45.537Z,15.30
2023-05-02T06:17:48.743Z,15.30
2023-05-02T06:20:51.825Z,15.30
2023-05-02T06:23:56.297Z,15.30
2023-05-02T06:27:00.269Z,15.30
2023-05-02T06:30:03.988Z,15.40
2023-05-02T06:33:07.584Z,15.40
2023-05-02T06:36:11.008Z,15.40
2023-05-02T06:39:15.554Z,15.40
2023-05-02T06:42:18.646Z,15.40
2023-05-02T06:45:21.850Z,15.40
2023-05-02T06:48:24.962Z,15.30
2023-05-02T06:51:28.287Z,15.30
2023-05-02T06:54:32.745Z,15.20
2023-05-02T06:57:35.858Z,15.20
2023-05-02T07:00:39.043Z,15.30
2023-05-02T07:03:42.218Z,15.40
2023-05-02T07:06:45.499Z,15.40
2023-05-02T07:09:50.011Z,15.50
2023-05-02T07:12:53.114Z,15.50
2023-05-02T07:15:56.982Z,15.50
2023-05-02T07:19:00.220Z,15.70
2023-05-02T07:22:03.342Z,15.80
2023-05-02T07:25:08.642Z,15.70
2023-05-02T07:28:11.726Z,15.70
2023-05-02T07:31:15.729Z,15.80
2023-05-02T07:34:20.132Z,15.80
2023-05-02T07:37:23.588Z,15.80
2023-05-02T07:40:28.737Z,15.80
2023-05-02T07:43:32.271Z,15.90
2023-05-02T07:46:35.623Z,15.90
2023-05-02T07:49:41.693Z,15.90
2023-05-02T07:52:44.842Z,16.00
2023-05-02T07:55:49.291Z,16.30
2023-05-02T07:58:52.718Z,16.60
2023-05-02T08:01:55.978Z,16.80
2023-05-02T08:04:59.118Z,16.90
2023-05-02T08:08:02.756Z,16.90
2023-05-02T08:11:07.246Z,16.80
2023-05-02T08:14:10.344Z,16.70
2023-05-02T08:17:13.695Z,16.60
2023-05-02T08:20:16.887Z,16.60
2023-05-02T08:23:20.199Z,16.60
2023-05-02T08:26:24.799Z,16.60
2023-05-02T08:29:28.032Z,16.60
2023-05-02T08:32:31.177Z,16.70
2023-05-02T08:35:34.362Z,16.80
2023-05-02T08:38:37.459Z,17.00
2023-05-02T08:41:41.975Z,17.40
2023-05-02T08:44:45.082Z,17.60
2023-05-02T08:47:49.416Z,17.70
2023-05-02T08:50:53.965Z,18.10
2023-05-02T08:53:58.321Z,18.70
2023-05-02T08:57:05.514Z,19.20
2023-05-02T09:00:09.595Z,19.60
2023-05-02T09:03:23.772Z,19.60
2023-05-02T09:06:29.357Z,19.50
2023-05-02T09:09:35.291Z,19.50
2023-05-02T09:12:40.039Z,19.50
2023-05-02T09:15:43.244Z,19.40
2023-05-02T09:18:48.200Z,19.10
2023-05-02T09:21:51.614Z,18.80
2023-05-02T09:24:56.021Z,18.60
2023-05-02T09:28:01.903Z,18.50
2023-05-02T09:31:08.609Z,18.50
2023-05-02T09:34:13.340Z,18.50
2023-05-02T09:37:35.616Z,18.50
2023-05-02T09:40:39.353Z,18.50
2023-05-02T09:43:43.835Z,18.50
2023-05-02T09:46:48.584Z,18.60
2023-05-02T09:49:51.740Z,18.80
2023-05-02T09:53:02.998Z,18.90
2023-05-02T09:56:06.997Z,18.90
2023-05-02T09:59:18.376Z,18.90
2023-05-02T10:02:23.019Z,18.80
2023-05-02T10:05:27.166Z,18.80
2023-05-02T10:08:30.376Z,18.80
2023-05-02T10:11:34.694Z,18.90
2023-05-02T10:14:41.521Z,19.10
2023-05-02T10:17:49.338Z,19.20
2023-05-02T10:20:58.721Z,19.30
2023-05-02T10:24:03.621Z,19.10
2023-05-02T10:27:06.965Z,19.10
2023-05-02T10:30:14.069Z,19.10
2023-05-02T10:33:19.077Z,19.00
2023-05-02T10:36:23.894Z,19.00
2023-05-02T10:39:28.218Z,18.90
2023-05-02T10:42:32.142Z,18.80
2023-05-02T10:45:37.750Z,18.70
2023-05-02T10:48:40.881Z,18.60
2023-05-02T10:51:44.707Z,18.50
2023-05-02T10:54:48.004Z,18.40
2023-05-02T10:58:22.550Z,18.20
2023-05-02T11:01:40.057Z,18.00
2023-05-02T11:05:10.274Z,18.00
2023-05-02T11:08:37.221Z,17.90
2023-05-02T11:11:42.206Z,18.00
2023-05-02T11:14:49.922Z,18.10
2023-05-02T11:18:06.584Z,17.90
2023-05-02T11:21:29.898Z,17.80
2023-05-02T11:24:39.766Z,17.70
2023-05-02T11:27:44.609Z,17.70
2023-05-02T11:30:48.758Z,17.60
2023-05-02T11:33:58.700Z,17.50
2023-05-02T11:37:01.848Z,17.40
2023-05-02T11:40:23.034Z,17.30
2023-05-02T11:43:29.260Z,17.30
2023-05-02T11:46:34.248Z,17.30
2023-05-02T11:49:39.842Z,17.40
2023-05-02T11:52:44.819Z,17.50
2023-05-02T11:55:49.772Z,17.60
2023-05-02T11:59:01.047Z,17.80
2023-05-02T12:02:04.270Z,17.90
2023-05-02T12:05:10.533Z,17.90
2023-05-02T12:08:24.132Z,17.90
2023-05-02T12:11:27.363Z,17.80
2023-05-02T12:14:33.486Z,17.70
2023-05-02T12:17:42.325Z,17.60
2023-05-02T12:20:47.889Z,17.50
2023-05-02T12:23:51.098Z,17.50
2023-05-02T12:27:10.306Z,17.40
2023-05-02T12:30:27.111Z,17.30
2023-05-02T12:33:30.316Z,17.20
2023-05-02T12:36:35.285Z,17.10
2023-05-02T12:39:40.305Z,16.90
2023-05-02T12:42:43.464Z,16.80
2023-05-02T12:45:48.628Z,16.80
2023-05-02T12:49:03.233Z,16.70
2023-05-02T12:52:07.718Z,16.60
2023-05-02T12:55:17.556Z,16.60
2023-05-02T12:58:22.052Z,16.50
2023-05-02T13:01:25.182Z,16.60
2023-05-02T13:04:37.702Z,16.50
2023-05-02T13:07:42.180Z,16.50
2023-05-02T13:10:45.242Z,16.40
2023-05-02T13:13:48.386Z,16.30
2023-05-02T13:16:53.477Z,16.20
2023-05-02T13:20:01.406Z,16.10
2023-05-02T13:23:06.202Z,16.20
2023-05-02T13:26:09.258Z,16.20
2023-05-02T13:29:12.825Z,16.20
2023-05-02T13:32:16.417Z,16.40
2023-05-02T13:35:19.811Z,16.50
2023-05-02T13:38:24.388Z,16.60
2023-05-02T13:41:27.522Z,16.70
2023-05-02T13:44:31.562Z,16.80
2023-05-02T13:47:34.844Z,16.90
2023-05-02T13:50:39.289Z,17.00
2023-05-02T13:53:43.763Z,17.10
2023-05-02T13:56:46.854Z,17.10
2023-05-02T13:59:50.101Z,17.10
2023-05-02T14:02:53.293Z,16.90
2023-05-02T14:05:56.569Z,16.80
2023-05-02T14:09:01.050Z,16.70
2023-05-02T14:12:04.263Z,16.70
2023-05-02T14:15:08.577Z,16.70
2023-05-02T14:18:11.770Z,16.60
2023-05-02T14:21:14.950Z,16.70
2023-05-02T14:24:19.496Z,16.70
2023-05-02T14:27:23.108Z,16.70
2023-05-02T14:30:26.238Z,16.70
2023-05-02T14:33:29.334Z,16.70
2023-05-02T14:36:32.899Z,16.70
2023-05-02T14:39:37.687Z,16.70
2023-05-02T14:42:40.802Z,16.70
2023-05-02T14:45:43.922Z,16.60
2023-05-02T14:48:47.065Z,16.60
2023-05-02T14:51:50.336Z,16.60
2023-05-02T14:54:54.864Z,16.50
2023-05-02T14:57:58.512Z,16.40
2023-05-02T15:01:01.636Z,16.30
2023-05-02T15:04:06.433Z,16.20
2023-05-02T15:07:11.179Z,16.20
2023-05-02T15:10:15.829Z,16.10
2023-05-02T15:13:18.886Z,16.00
2023-05-02T15:16:22.085Z,15.90
2023-05-02T15:19:25.324Z,15.80
2023-05-02T15:22:28.464Z,15.70
2023-05-02T15:25:32.989Z,15.70
2023-05-02T15:28:36.100Z,15.60
2023-05-02T15:31:39.310Z,15.60
2023-05-02T15:34:42.435Z,15.50
2023-05-02T15:37:45.675Z,15.40
2023-05-02T15:40:56.620Z,15.30
2023-05-02T15:44:00.058Z,15.20
2023-05-02T15:47:03.491Z,15.20
2023-05-02T15:50:07.479Z,15.30
2023-05-02T15:53:10.676Z,15.20
2023-05-02T15:56:15.822Z,15.20
2023-05-02T15:59:18.909Z,15.20
2023-05-02T16:02:22.031Z,15.30
2023-05-02T16:05:25.100Z,15.20
2023-05-02T16:08:28.918Z,15.20
2023-05-02T16:11:33.411Z,15.10
2023-05-02T16:14:36.785Z,15.20
2023-05-02T16:17:40.009Z,15.20
2023-05-02T16:20:43.152Z,15.20
2023-05-02T16:23:46.247Z,15.20
2023-05-02T16:26:50.774Z,15.20
2023-05-02T16:29:53.965Z,15.10
2023-05-02T16:32:57.373Z,15.10
2023-05-02T16:36:03.760Z,15.10
2023-05-02T16:39:06.952Z,15.00
2023-05-02T16:42:14.411Z,15.00
2023-05-02T16:45:17.486Z,15.00
2023-05-02T16:48:22.932Z,14.90
2023-05-02T16:51:26.024Z,14.90
2023-05-02T16:54:29.125Z,14.90
2023-05-02T16:57:33.649Z,14.90
2023-05-02T17:00:36.852Z,14.80
2023-05-02T17:03:41.464Z,14.80
2023-05-02T17:06:44.639Z,14.70
2023-05-02T17:09:47.771Z,14.60
2023-05-02T17:12:54.257Z,14.70
2023-05-02T17:15:57.687Z,14.70
2023-05-02T17:19:00.773Z,14.80
2023-05-02T17:22:05.155Z,14.80
2023-05-02T17:25:10.788Z,14.80
2023-05-02T17:28:15.998Z,14.70
2023-05-02T17:31:20.459Z,14.60
2023-05-02T17:34:28.389Z,14.50
2023-05-02T17:37:32.941Z,14.50
2023-05-02T17:40:38.104Z,14.50
2023-05-02T17:43:43.547Z,14.40
2023-05-02T17:46:47.034Z,14.30
2023-05-02T17:49:51.325Z,14.40
2023-05-02T17:52:55.104Z,14.30
2023-05-02T17:55:58.946Z,14.30
2023-05-02T17:59:03.602Z,14.20
2023-05-02T18:02:09.879Z,14.20
2023-05-02T18:05:13.684Z,14.10
2023-05-02T18:08:17.593Z,14.10
2023-05-02T18:11:24.031Z,14.10
2023-05-02T18:14:29.991Z,14.10
2023-05-02T18:17:33.589Z,14.20
2023-05-02T18:20:40.572Z,14.10
2023-05-02T18:23:43.837Z,14.10
2023-05-02T18:26:50.145Z,14.10
2023-05-02T18:29:55.965Z,14.10
2023-05-02T18:33:00.230Z,14.10
2023-05-02T18:36:03.843Z,14.20
2023-05-02T18:39:07.480Z,14.20
2023-05-02T18:42:13.464Z,14.10
2023-05-02T18:45:19.369Z,14.10
2023-05-02T18:48:24.574Z,14.10
2023-05-02T18:51:29.578Z,14.10
2023-05-02T18:54:33.950Z,14.10
2023-05-02T18:57:37.624Z,14.10
2023-05-02T19:00:44.722Z,14.10
2023-05-02T19:03:48.826Z,14.20
2023-05-02T19:06:52.354Z,14.20
2023-05-02T19:09:56.433Z,14.20
2023-05-02T19:12:59.721Z,14.20
2023-05-02T19:16:07.826Z,14.20
2023-05-02T19:19:11.125Z,14.20
2023-05-02T19:22:15.257Z,14.20
2023-05-02T19:25:19.315Z,14.10
2023-05-02T19:28:25.449Z,14.10
2023-05-02T19:31:30.861Z,14.20
2023-05-02T19:34:36.540Z,14.10
2023-05-02T19:37:41.485Z,14.10
2023-05-02T19:40:45.984Z,14.10
2023-05-02T19:43:51.652Z,14.10
2023-05-02T19:46:58.614Z,14.20
2023-05-02T19:50:02.042Z,14.10
2023-05-02T19:53:05.593Z,14.10
2023-05-02T19:56:09.097Z,14.20
2023-05-02T19:59:12.210Z,14.20
2023-05-02T20:02:17.230Z,14.10
2023-05-02T20:05:21.958Z,14.20
2023-05-02T20:08:34.852Z,14.10
2023-05-02T20:11:38.694Z,14.10
2023-05-02T20:14:42.195Z,14.20
2023-05-02T20:17:48.000Z,14.10
2023-05-02T20:20:52.367Z,14.10
2023-05-02T20:23:55.913Z,14.10
2023-05-02T20:26:59.143Z,14.10
2023-05-02T20:30:02.463Z,14.10
2023-05-02T20:33:15.514Z,14.10
2023-05-02T20:36:19.878Z,14.10
2023-05-02T20:39:23.280Z,14.10
2023-05-02T20:42:26.926Z,14.00
2023-05-02T20:45:30.164Z,14.00
2023-05-02T20:48:34.572Z,14.00
2023-05-02T20:51:37.710Z,14.00
2023-05-02T20:54:40.816Z,14.00
2023-05-02T20:57:45.679Z,14.00
2023-05-02T21:00:52.542Z,13.90
2023-05-02T21:03:57.448Z,13.90
2023-05-02T21:07:01.043Z,14.00
2023-05-02T21:10:04.885Z,14.00
2023-05-02T21:13:08.256Z,14.00
2023-05-02T21:16:15.962Z,13.90
2023-05-02T21:19:21.646Z,14.00
2023-05-02T21:22:24.904Z,13.90
2023-05-02T21:25:28.429Z,13.90
2023-05-02T21:28:31.786Z,13.90
2023-05-02T21:31:35.067Z,13.90
2023-05-02T21:34:39.638Z,13.90
2023-05-02T21:37:42.752Z,13.90
2023-05-02T21:40:45.850Z,13.80
2023-05-02T21:43:48.983Z,13.80
2023-05-02T21:46:52.192Z,13.80
2023-05-02T21:49:57.351Z,13.80
2023-05-02T21:53:01.515Z,13.80
2023-05-02T21:56:04.780Z,13.80
2023-05-02T21:59:07.879Z,13.80
2023-05-02T22:02:12.042Z,13.80
2023-05-02T22:05:16.747Z,13.70
2023-05-02T22:08:20.449Z,13.70
2023-05-02T22:11:24.320Z,13.70
2023-05-02T22:14:33.812Z,13.70
2023-05-02T22:17:46.077Z,13.60
2023-05-02T22:20:50.761Z,13.60
2023-05-02T22:23:54.298Z,13.50
2023-05-02T22:26:57.384Z,13.40
2023-05-02T22:30:00.714Z,13.40
2023-05-02T22:33:04.540Z,13.30
2023-05-02T22:36:09.631Z,13.40
2023-05-02T22:39:15.673Z,13.40
2023-05-02T22:42:19.306Z,13.40
2023-05-02T22:45:22.629Z,13.40
2023-05-02T22:48:26.001Z,13.40
2023-05-02T22:51:30.516Z,13.40
2023-05-02T22:54:33.638Z,13.40
2023-05-02T22:57:37.164Z,13.40
2023-05-02T23:00:40.349Z,13.40
2023-05-02T23:03:43.632Z,13.30
2023-05-02T23:06:48.269Z,13.30
2023-05-02T23:09:51.561Z,13.30
2023-05-02T23:12:54.714Z,13.30
2023-05-02T23:15:57.953Z,13.30
2023-05-02T23:19:01.050Z,13.30
2023-05-02T23:22:05.676Z,13.30
2023-05-02T23:25:09.870Z,13.30
2023-05-02T23:28:13.330Z,13.20
2023-05-02T23:31:16.616Z,13.30
2023-05-02T23:34:21.654Z,13.30
2023-05-02T23:37:26.076Z,13.30
2023-05-02T23:40:29.322Z,13.30
2023-05-02T23:43:32.468Z,13.30
2023-05-02T23:46:35.822Z,13.20
2023-05-02T23:49:39.042Z,13.10
2023-05-02T23:52:43.491Z,13.00
2023-05-02T23:55:46.606Z,13.10
2023-05-02T23:58:49.691Z,13.10
